sensor_id;sensor_type;location;lat;lon;timestamp;P1;P2;P0
76421;PMS5003;65254;52.354;13.614;2023-10-13T00:00:00;3;3;
76421;PMS5003;65254;52.354;13.614;2023-10-13T00:04:00;3;3;
76421;PMS5003;65254;52.354;13.614;2023-10-13T00:08:02;3;3;
76421;PMS5003;65254;52.354;13.614;2023-10-13T00:12:00;3;3;
76421;PMS5003;65254;52.354;13.614;2023-10-13T00:16:00;3;3;
76421;PMS5003;65254;52.354;13.614;2023-10-13T00:20:00;3;3;
76421;PMS5003;65254;52.354;13.614;2023-10-13T00:24:00;4;4;
76421;PMS5003;65254;52.354;13.614;2023-10-13T00:28:00;3;3;
76421;PMS5003;65254;52.354;13.614;2023-10-13T00:32:00;3;3;
76421;PMS5003;65254;52.354;13.614;2023-10-13T00:36:00;3;3;
76421;PMS5003;65254;52.354;13.614;2023-10-13T00:40:00;4;4;
76421;PMS5003;65254;52.354;13.614;2023-10-13T00:44:00;4;4;
76421;PMS5003;65254;52.354;13.614;2023-10-13T00:48:00;3;3;
76421;PMS5003;65254;52.354;13.614;2023-10-13T00:52:00;3;3;
76421;PMS5003;65254;52.354;13.614;2023-10-13T00:56:01;3;3;
76421;PMS5003;65254;52.354;13.614;2023-10-13T01:00:00;3;3;
76421;PMS5003;65254;52.354;13.614;2023-10-13T01:04:01;3;3;
76421;PMS5003;65254;52.354;13.614;2023-10-13T01:08:00;3;3;
76421;PMS5003;65254;52.354;13.614;2023-10-13T01:12:00;3;3;
76421;PMS5003;65254;52.354;13.614;2023-10-13T01:16:00;3;3;
76421;PMS5003;65254;52.354;13.614;2023-10-13T01:20:00;3;3;
76421;PMS5003;65254;52.354;13.614;2023-10-13T01:24:01;3;3;
76421;PMS5003;65254;52.354;13.614;2023-10-13T01:28:00;3;3;
76421;PMS5003;65254;52.354;13.614;2023-10-13T01:32:00;3;3;
76421;PMS5003;65254;52.354;13.614;2023-10-13T01:36:01;3;3;
76421;PMS5003;65254;52.354;13.614;2023-10-13T01:40:00;3;3;
76421;PMS5003;65254;52.354;13.614;2023-10-13T01:44:00;3;3;
76421;PMS5003;65254;52.354;13.614;2023-10-13T01:48:00;3;3;
76421;PMS5003;65254;52.354;13.614;2023-10-13T01:52:00;3;3;
76421;PMS5003;65254;52.354;13.614;2023-10-13T01:56:00;3;3;
76421;PMS5003;65254;52.354;13.614;2023-10-13T02:00:00;4;4;
76421;PMS5003;65254;52.354;13.614;2023-10-13T02:04:01;4;4;
76421;PMS5003;65254;52.354;13.614;2023-10-13T02:08:00;3;3;
76421;PMS5003;65254;52.354;13.614;2023-10-13T02:12:00;3;3;
76421;PMS5003;65254;52.354;13.614;2023-10-13T02:16:00;4;4;
76421;PMS5003;65254;52.354;13.614;2023-10-13T02:20:00;4;4;
76421;PMS5003;65254;52.354;13.614;2023-10-13T02:24:00;4;4;
76421;PMS5003;65254;52.354;13.614;2023-10-13T02:28:00;5;5;
76421;PMS5003;65254;52.354;13.614;2023-10-13T02:32:00;5;5;
76421;PMS5003;65254;52.354;13.614;2023-10-13T02:36:02;5;5;
76421;PMS5003;65254;52.354;13.614;2023-10-13T02:40:00;4;4;
76421;PMS5003;65254;52.354;13.614;2023-10-13T02:44:00;5;5;
76421;PMS5003;65254;52.354;13.614;2023-10-13T02:48:00;6;6;
76421;PMS5003;65254;52.354;13.614;2023-10-13T02:52:00;6;6;
76421;PMS5003;65254;52.354;13.614;2023-10-13T02:56:00;5;5;
76421;PMS5003;65254;52.354;13.614;2023-10-13T03:00:00;6;6;
76421;PMS5003;65254;52.354;13.614;2023-10-13T03:04:02;6;6;
76421;PMS5003;65254;52.354;13.614;2023-10-13T03:08:00;6;6;
76421;PMS5003;65254;52.354;13.614;2023-10-13T03:12:00;6;6;
76421;PMS5003;65254;52.354;13.614;2023-10-13T03:16:00;6;6;
76421;PMS5003;65254;52.354;13.614;2023-10-13T03:20:00;6;6;
76421;PMS5003;65254;52.354;13.614;2023-10-13T03:24:00;6;6;
76421;PMS5003;65254;52.354;13.614;2023-10-13T03:28:03;8;7;
76421;PMS5003;65254;52.354;13.614;2023-10-13T03:32:00;7;7;
76421;PMS5003;65254;52.354;13.614;2023-10-13T03:36:00;7;7;
76421;PMS5003;65254;52.354;13.614;2023-10-13T03:40:01;8;7;
76421;PMS5003;65254;52.354;13.614;2023-10-13T03:44:00;9;8;
76421;PMS5003;65254;52.354;13.614;2023-10-13T03:48:00;9;8;
76421;PMS5003;65254;52.354;13.614;2023-10-13T03:52:00;9;8;
76421;PMS5003;65254;52.354;13.614;2023-10-13T03:56:01;9;8;
76421;PMS5003;65254;52.354;13.614;2023-10-13T04:00:00;7;7;
76421;PMS5003;65254;52.354;13.614;2023-10-13T04:04:01;9;8;
76421;PMS5003;65254;52.354;13.614;2023-10-13T04:08:02;8;7;
76421;PMS5003;65254;52.354;13.614;2023-10-13T04:12:02;7;7;
76421;PMS5003;65254;52.354;13.614;2023-10-13T04:16:00;10;9;
76421;PMS5003;65254;52.354;13.614;2023-10-13T04:20:00;9;8;
76421;PMS5003;65254;52.354;13.614;2023-10-13T04:24:00;10;9;
76421;PMS5003;65254;52.354;13.614;2023-10-13T04:28:01;10;9;
76421;PMS5003;65254;52.354;13.614;2023-10-13T04:32:00;9;8;
76421;PMS5003;65254;52.354;13.614;2023-10-13T04:36:01;10;9;
76421;PMS5003;65254;52.354;13.614;2023-10-13T04:40:00;9;8;
76421;PMS5003;65254;52.354;13.614;2023-10-13T04:44:00;9;8;
76421;PMS5003;65254;52.354;13.614;2023-10-13T04:48:01;9;8;
76421;PMS5003;65254;52.354;13.614;2023-10-13T04:52:02;9;8;
76421;PMS5003;65254;52.354;13.614;2023-10-13T04:56:01;10;9;
76421;PMS5003;65254;52.354;13.614;2023-10-13T05:00:02;10;9;
76421;PMS5003;65254;52.354;13.614;2023-10-13T05:04:00;10;9;
76421;PMS5003;65254;52.354;13.614;2023-10-13T05:08:00;9;8;
76421;PMS5003;65254;52.354;13.614;2023-10-13T05:12:00;10;9;
76421;PMS5003;65254;52.354;13.614;2023-10-13T05:16:00;10;9;
76421;PMS5003;65254;52.354;13.614;2023-10-13T05:20:00;10;9;
76421;PMS5003;65254;52.354;13.614;2023-10-13T05:24:00;10;9;
76421;PMS5003;65254;52.354;13.614;2023-10-13T05:28:00;10;9;
76421;PMS5003;65254;52.354;13.614;2023-10-13T05:32:00;10;9;
76421;PMS5003;65254;52.354;13.614;2023-10-13T05:36:03;11;10;
76421;PMS5003;65254;52.354;13.614;2023-10-13T05:40:00;10;9;
76421;PMS5003;65254;52.354;13.614;2023-10-13T05:44:00;10;9;
76421;PMS5003;65254;52.354;13.614;2023-10-13T05:48:01;11;10;
76421;PMS5003;65254;52.354;13.614;2023-10-13T05:52:00;10;9;
76421;PMS5003;65254;52.354;13.614;2023-10-13T05:56:01;10;9;
76421;PMS5003;65254;52.354;13.614;2023-10-13T06:00:00;10;9;
76421;PMS5003;65254;52.354;13.614;2023-10-13T06:04:00;10;9;
76421;PMS5003;65254;52.354;13.614;2023-10-13T06:08:00;10;9;
76421;PMS5003;65254;52.354;13.614;2023-10-13T06:12:00;11;10;
76421;PMS5003;65254;52.354;13.614;2023-10-13T06:16:04;11;10;
76421;PMS5003;65254;52.354;13.614;2023-10-13T06:20:00;10;9;
76421;PMS5003;65254;52.354;13.614;2023-10-13T06:24:00;11;10;
76421;PMS5003;65254;52.354;13.614;2023-10-13T06:28:00;11;10;
76421;PMS5003;65254;52.354;13.614;2023-10-13T06:32:01;11;10;
76421;PMS5003;65254;52.354;13.614;2023-10-13T06:36:01;10;9;
76421;PMS5003;65254;52.354;13.614;2023-10-13T06:40:03;10;9;
76421;PMS5003;65254;52.354;13.614;2023-10-13T06:44:01;9;8;
76421;PMS5003;65254;52.354;13.614;2023-10-13T06:48:00;10;9;
76421;PMS5003;65254;52.354;13.614;2023-10-13T06:52:00;10;9;
76421;PMS5003;65254;52.354;13.614;2023-10-13T06:56:00;10;9;
76421;PMS5003;65254;52.354;13.614;2023-10-13T07:00:00;10;9;
76421;PMS5003;65254;52.354;13.614;2023-10-13T07:04:00;10;9;
76421;PMS5003;65254;52.354;13.614;2023-10-13T07:08:04;9;8;
76421;PMS5003;65254;52.354;13.614;2023-10-13T07:12:00;10;9;
76421;PMS5003;65254;52.354;13.614;2023-10-13T07:16:01;10;9;
76421;PMS5003;65254;52.354;13.614;2023-10-13T07:20:00;10;9;
76421;PMS5003;65254;52.354;13.614;2023-10-13T07:24:00;9;8;
76421;PMS5003;65254;52.354;13.614;2023-10-13T07:28:00;9;8;
76421;PMS5003;65254;52.354;13.614;2023-10-13T07:32:01;8;7;
76421;PMS5003;65254;52.354;13.614;2023-10-13T07:36:02;9;8;
76421;PMS5003;65254;52.354;13.614;2023-10-13T07:40:00;9;8;
76421;PMS5003;65254;52.354;13.614;2023-10-13T07:44:00;7;7;
76421;PMS5003;65254;52.354;13.614;2023-10-13T07:48:00;9;8;
76421;PMS5003;65254;52.354;13.614;2023-10-13T07:52:01;7;7;
76421;PMS5003;65254;52.354;13.614;2023-10-13T07:56:01;7;7;
76421;PMS5003;65254;52.354;13.614;2023-10-13T08:00:00;7;7;
76421;PMS5003;65254;52.354;13.614;2023-10-13T08:04:00;7;7;
76421;PMS5003;65254;52.354;13.614;2023-10-13T08:08:00;7;7;
76421;PMS5003;65254;52.354;13.614;2023-10-13T08:12:00;7;7;
76421;PMS5003;65254;52.354;13.614;2023-10-13T08:16:01;7;7;
76421;PMS5003;65254;52.354;13.614;2023-10-13T08:20:00;7;7;
76421;PMS5003;65254;52.354;13.614;2023-10-13T08:24:00;6;6;
76421;PMS5003;65254;52.354;13.614;2023-10-13T08:28:00;6;6;
76421;PMS5003;65254;52.354;13.614;2023-10-13T08:32:00;6;6;
76421;PMS5003;65254;52.354;13.614;2023-10-13T08:36:00;6;6;
76421;PMS5003;65254;52.354;13.614;2023-10-13T08:40:12;6;6;
76421;PMS5003;65254;52.354;13.614;2023-10-13T08:44:02;6;6;
76421;PMS5003;65254;52.354;13.614;2023-10-13T08:48:00;6;6;
76421;PMS5003;65254;52.354;13.614;2023-10-13T08:52:01;5;5;
76421;PMS5003;65254;52.354;13.614;2023-10-13T08:56:02;5;5;
76421;PMS5003;65254;52.354;13.614;2023-10-13T09:00:00;6;6;
76421;PMS5003;65254;52.354;13.614;2023-10-13T09:04:01;4;4;
76421;PMS5003;65254;52.354;13.614;2023-10-13T09:08:04;6;6;
76421;PMS5003;65254;52.354;13.614;2023-10-13T09:12:00;5;5;
76421;PMS5003;65254;52.354;13.614;2023-10-13T09:16:09;4;4;
76421;PMS5003;65254;52.354;13.614;2023-10-13T09:20:02;4;4;
76421;PMS5003;65254;52.354;13.614;2023-10-13T09:24:00;5;5;
76421;PMS5003;65254;52.354;13.614;2023-10-13T09:28:01;5;5;
76421;PMS5003;65254;52.354;13.614;2023-10-13T09:32:03;4;4;
76421;PMS5003;65254;52.354;13.614;2023-10-13T09:36:02;5;5;
76421;PMS5003;65254;52.354;13.614;2023-10-13T09:40:01;5;5;
76421;PMS5003;65254;52.354;13.614;2023-10-13T09:44:00;4;4;
76421;PMS5003;65254;52.354;13.614;2023-10-13T09:48:02;5;5;
76421;PMS5003;65254;52.354;13.614;2023-10-13T09:52:01;4;4;
76421;PMS5003;65254;52.354;13.614;2023-10-13T09:56:03;5;5;
76421;PMS5003;65254;52.354;13.614;2023-10-13T10:00:06;4;4;
76421;PMS5003;65254;52.354;13.614;2023-10-13T10:04:09;5;5;
76421;PMS5003;65254;52.354;13.614;2023-10-13T10:08:00;4;4;
76421;PMS5003;65254;52.354;13.614;2023-10-13T10:12:12;5;5;
76421;PMS5003;65254;52.354;13.614;2023-10-13T10:16:07;5;5;
76421;PMS5003;65254;52.354;13.614;2023-10-13T10:20:00;4;4;
76421;PMS5003;65254;52.354;13.614;2023-10-13T10:24:00;4;4;
76421;PMS5003;65254;52.354;13.614;2023-10-13T10:28:02;4;4;
76421;PMS5003;65254;52.354;13.614;2023-10-13T10:32:00;4;4;
76421;PMS5003;65254;52.354;13.614;2023-10-13T10:36:01;4;4;
76421;PMS5003;65254;52.354;13.614;2023-10-13T10:40:00;3;3;
76421;PMS5003;65254;52.354;13.614;2023-10-13T10:44:00;5;5;
76421;PMS5003;65254;52.354;13.614;2023-10-13T10:48:00;4;4;
76421;PMS5003;65254;52.354;13.614;2023-10-13T10:52:01;4;4;
76421;PMS5003;65254;52.354;13.614;2023-10-13T10:56:04;5;5;
76421;PMS5003;65254;52.354;13.614;2023-10-13T11:00:00;4;4;
76421;PMS5003;65254;52.354;13.614;2023-10-13T11:04:01;5;5;
76421;PMS5003;65254;52.354;13.614;2023-10-13T11:08:00;3;3;
76421;PMS5003;65254;52.354;13.614;2023-10-13T11:12:11;4;4;
76421;PMS5003;65254;52.354;13.614;2023-10-13T11:16:00;4;4;
76421;PMS5003;65254;52.354;13.614;2023-10-13T11:20:08;4;4;
76421;PMS5003;65254;52.354;13.614;2023-10-13T11:24:00;5;5;
76421;PMS5003;65254;52.354;13.614;2023-10-13T11:28:10;4;4;
76421;PMS5003;65254;52.354;13.614;2023-10-13T11:32:01;4;4;
76421;PMS5003;65254;52.354;13.614;2023-10-13T11:36:00;5;5;
76421;PMS5003;65254;52.354;13.614;2023-10-13T11:40:00;5;5;
76421;PMS5003;65254;52.354;13.614;2023-10-13T11:44:00;4;4;
76421;PMS5003;65254;52.354;13.614;2023-10-13T11:48:00;5;5;
76421;PMS5003;65254;52.354;13.614;2023-10-13T11:52:00;4;4;
76421;PMS5003;65254;52.354;13.614;2023-10-13T11:56:00;4;4;
76421;PMS5003;65254;52.354;13.614;2023-10-13T12:00:00;4;4;
76421;PMS5003;65254;52.354;13.614;2023-10-13T12:04:00;4;4;
76421;PMS5003;65254;52.354;13.614;2023-10-13T12:08:00;4;4;
76421;PMS5003;65254;52.354;13.614;2023-10-13T12:12:00;4;4;
76421;PMS5003;65254;52.354;13.614;2023-10-13T12:16:00;4;4;
76421;PMS5003;65254;52.354;13.614;2023-10-13T12:20:01;5;5;
76421;PMS5003;65254;52.354;13.614;2023-10-13T12:24:00;4;4;
76421;PMS5003;65254;52.354;13.614;2023-10-13T12:28:00;4;4;
76421;PMS5003;65254;52.354;13.614;2023-10-13T12:32:00;4;4;
76421;PMS5003;65254;52.354;13.614;2023-10-13T12:36:01;5;5;
76421;PMS5003;65254;52.354;13.614;2023-10-13T12:40:00;4;4;
76421;PMS5003;65254;52.354;13.614;2023-10-13T12:44:01;4;4;
76421;PMS5003;65254;52.354;13.614;2023-10-13T12:48:04;4;4;
76421;PMS5003;65254;52.354;13.614;2023-10-13T12:52:00;4;4;
76421;PMS5003;65254;52.354;13.614;2023-10-13T12:56:00;5;5;
76421;PMS5003;65254;52.354;13.614;2023-10-13T13:00:00;4;4;
76421;PMS5003;65254;52.354;13.614;2023-10-13T13:04:00;4;4;
76421;PMS5003;65254;52.354;13.614;2023-10-13T13:08:00;4;4;
76421;PMS5003;65254;52.354;13.614;2023-10-13T13:12:00;5;5;
76421;PMS5003;65254;52.354;13.614;2023-10-13T13:16:00;5;5;
76421;PMS5003;65254;52.354;13.614;2023-10-13T13:20:00;5;5;
76421;PMS5003;65254;52.354;13.614;2023-10-13T13:24:00;4;4;
76421;PMS5003;65254;52.354;13.614;2023-10-13T13:28:00;4;4;
76421;PMS5003;65254;52.354;13.614;2023-10-13T13:32:00;4;4;
76421;PMS5003;65254;52.354;13.614;2023-10-13T13:36:00;4;4;
76421;PMS5003;65254;52.354;13.614;2023-10-13T13:40:03;5;5;
76421;PMS5003;65254;52.354;13.614;2023-10-13T13:44:00;4;4;
76421;PMS5003;65254;52.354;13.614;2023-10-13T13:48:00;4;4;
76421;PMS5003;65254;52.354;13.614;2023-10-13T13:52:00;4;4;
76421;PMS5003;65254;52.354;13.614;2023-10-13T13:56:01;4;4;
76421;PMS5003;65254;52.354;13.614;2023-10-13T14:00:00;4;4;
76421;PMS5003;65254;52.354;13.614;2023-10-13T14:04:00;4;4;
76421;PMS5003;65254;52.354;13.614;2023-10-13T14:08:00;4;4;
76421;PMS5003;65254;52.354;13.614;2023-10-13T14:12:00;4;4;
76421;PMS5003;65254;52.354;13.614;2023-10-13T14:16:00;4;4;
76421;PMS5003;65254;52.354;13.614;2023-10-13T14:20:01;4;4;
76421;PMS5003;65254;52.354;13.614;2023-10-13T14:24:00;4;4;
76421;PMS5003;65254;52.354;13.614;2023-10-13T14:28:00;4;4;
76421;PMS5003;65254;52.354;13.614;2023-10-13T14:32:00;4;4;
76421;PMS5003;65254;52.354;13.614;2023-10-13T14:36:00;4;4;
76421;PMS5003;65254;52.354;13.614;2023-10-13T14:40:00;4;4;
76421;PMS5003;65254;52.354;13.614;2023-10-13T14:44:00;4;4;
76421;PMS5003;65254;52.354;13.614;2023-10-13T14:48:00;4;4;
76421;PMS5003;65254;52.354;13.614;2023-10-13T14:52:01;3;3;
76421;PMS5003;65254;52.354;13.614;2023-10-13T14:56:00;5;5;
76421;PMS5003;65254;52.354;13.614;2023-10-13T15:00:00;5;5;
76421;PMS5003;65254;52.354;13.614;2023-10-13T15:04:00;4;4;
76421;PMS5003;65254;52.354;13.614;2023-10-13T15:08:00;4;4;
76421;PMS5003;65254;52.354;13.614;2023-10-13T15:12:00;4;4;
76421;PMS5003;65254;52.354;13.614;2023-10-13T15:16:00;4;4;
76421;PMS5003;65254;52.354;13.614;2023-10-13T15:20:01;5;5;
76421;PMS5003;65254;52.354;13.614;2023-10-13T15:24:01;4;4;
76421;PMS5003;65254;52.354;13.614;2023-10-13T15:28:00;5;5;
76421;PMS5003;65254;52.354;13.614;2023-10-13T15:32:01;5;5;
76421;PMS5003;65254;52.354;13.614;2023-10-13T15:36:00;5;5;
76421;PMS5003;65254;52.354;13.614;2023-10-13T15:40:00;4;4;
76421;PMS5003;65254;52.354;13.614;2023-10-13T15:44:00;5;5;
76421;PMS5003;65254;52.354;13.614;2023-10-13T15:48:11;5;5;
76421;PMS5003;65254;52.354;13.614;2023-10-13T15:52:00;5;5;
76421;PMS5003;65254;52.354;13.614;2023-10-13T15:56:03;5;5;
76421;PMS5003;65254;52.354;13.614;2023-10-13T16:00:03;6;6;
76421;PMS5003;65254;52.354;13.614;2023-10-13T16:04:01;6;6;
76421;PMS5003;65254;52.354;13.614;2023-10-13T16:08:01;5;5;
76421;PMS5003;65254;52.354;13.614;2023-10-13T16:12:00;6;6;
76421;PMS5003;65254;52.354;13.614;2023-10-13T16:16:00;5;5;
76421;PMS5003;65254;52.354;13.614;2023-10-13T16:20:00;6;6;
76421;PMS5003;65254;52.354;13.614;2023-10-13T16:24:00;5;5;
76421;PMS5003;65254;52.354;13.614;2023-10-13T16:28:00;6;6;
76421;PMS5003;65254;52.354;13.614;2023-10-13T16:32:01;6;6;
76421;PMS5003;65254;52.354;13.614;2023-10-13T16:36:00;6;6;
76421;PMS5003;65254;52.354;13.614;2023-10-13T16:40:00;6;6;
76421;PMS5003;65254;52.354;13.614;2023-10-13T16:44:00;6;6;
76421;PMS5003;65254;52.354;13.614;2023-10-13T16:48:00;5;5;
76421;PMS5003;65254;52.354;13.614;2023-10-13T16:52:00;6;6;
76421;PMS5003;65254;52.354;13.614;2023-10-13T16:56:00;6;6;
76421;PMS5003;65254;52.354;13.614;2023-10-13T17:00:00;6;6;
76421;PMS5003;65254;52.354;13.614;2023-10-13T17:04:01;10;9;
76421;PMS5003;65254;52.354;13.614;2023-10-13T17:08:02;10;9;
76421;PMS5003;65254;52.354;13.614;2023-10-13T17:12:00;9;8;
76421;PMS5003;65254;52.354;13.614;2023-10-13T17:16:09;10;9;
76421;PMS5003;65254;52.354;13.614;2023-10-13T17:20:00;10;9;
76421;PMS5003;65254;52.354;13.614;2023-10-13T17:24:00;12;11;
76421;PMS5003;65254;52.354;13.614;2023-10-13T17:28:00;10;9;
76421;PMS5003;65254;52.354;13.614;2023-10-13T17:32:00;10;9;
76421;PMS5003;65254;52.354;13.614;2023-10-13T17:36:00;11;10;
76421;PMS5003;65254;52.354;13.614;2023-10-13T17:40:00;10;9;
76421;PMS5003;65254;52.354;13.614;2023-10-13T17:44:00;9;8;
76421;PMS5003;65254;52.354;13.614;2023-10-13T17:48:01;7;7;
76421;PMS5003;65254;52.354;13.614;2023-10-13T17:52:00;6;6;
76421;PMS5003;65254;52.354;13.614;2023-10-13T17:56:02;6;6;
76421;PMS5003;65254;52.354;13.614;2023-10-13T18:00:00;5;5;
76421;PMS5003;65254;52.354;13.614;2023-10-13T18:04:00;6;6;
76421;PMS5003;65254;52.354;13.614;2023-10-13T18:08:00;7;6;
76421;PMS5003;65254;52.354;13.614;2023-10-13T18:12:00;5;5;
76421;PMS5003;65254;52.354;13.614;2023-10-13T18:16:11;5;5;
76421;PMS5003;65254;52.354;13.614;2023-10-13T18:20:00;5;5;
76421;PMS5003;65254;52.354;13.614;2023-10-13T18:24:00;6;6;
76421;PMS5003;65254;52.354;13.614;2023-10-13T18:28:00;6;6;
76421;PMS5003;65254;52.354;13.614;2023-10-13T18:32:00;6;6;
76421;PMS5003;65254;52.354;13.614;2023-10-13T18:36:11;5;5;
76421;PMS5003;65254;52.354;13.614;2023-10-13T18:40:01;5;5;
76421;PMS5003;65254;52.354;13.614;2023-10-13T18:44:00;5;5;
76421;PMS5003;65254;52.354;13.614;2023-10-13T18:48:00;5;5;
76421;PMS5003;65254;52.354;13.614;2023-10-13T18:52:00;6;6;
76421;PMS5003;65254;52.354;13.614;2023-10-13T18:56:04;5;4;
76421;PMS5003;65254;52.354;13.614;2023-10-13T19:00:00;5;5;
76421;PMS5003;65254;52.354;13.614;2023-10-13T19:04:02;5;5;
76421;PMS5003;65254;52.354;13.614;2023-10-13T19:08:00;5;5;
76421;PMS5003;65254;52.354;13.614;2023-10-13T19:12:00;5;5;
76421;PMS5003;65254;52.354;13.614;2023-10-13T19:16:04;5;5;
76421;PMS5003;65254;52.354;13.614;2023-10-13T19:20:00;4;4;
76421;PMS5003;65254;52.354;13.614;2023-10-13T19:24:00;5;5;
76421;PMS5003;65254;52.354;13.614;2023-10-13T19:28:00;6;6;
76421;PMS5003;65254;52.354;13.614;2023-10-13T19:32:00;5;5;
76421;PMS5003;65254;52.354;13.614;2023-10-13T19:36:03;5;5;
76421;PMS5003;65254;52.354;13.614;2023-10-13T19:40:00;5;5;
76421;PMS5003;65254;52.354;13.614;2023-10-13T19:44:01;5;5;
76421;PMS5003;65254;52.354;13.614;2023-10-13T19:48:00;5;5;
76421;PMS5003;65254;52.354;13.614;2023-10-13T19:52:00;5;5;
76421;PMS5003;65254;52.354;13.614;2023-10-13T19:56:00;5;5;
76421;PMS5003;65254;52.354;13.614;2023-10-13T20:00:00;5;5;
76421;PMS5003;65254;52.354;13.614;2023-10-13T20:04:01;5;5;
76421;PMS5003;65254;52.354;13.614;2023-10-13T20:08:00;4;4;
76421;PMS5003;65254;52.354;13.614;2023-10-13T20:12:00;4;4;
76421;PMS5003;65254;52.354;13.614;2023-10-13T20:16:00;5;5;
76421;PMS5003;65254;52.354;13.614;2023-10-13T20:20:00;4;4;
76421;PMS5003;65254;52.354;13.614;2023-10-13T20:24:01;4;4;
76421;PMS5003;65254;52.354;13.614;2023-10-13T20:28:01;5;5;
76421;PMS5003;65254;52.354;13.614;2023-10-13T20:32:00;4;4;
76421;PMS5003;65254;52.354;13.614;2023-10-13T20:36:00;4;4;
76421;PMS5003;65254;52.354;13.614;2023-10-13T20:40:01;4;4;
76421;PMS5003;65254;52.354;13.614;2023-10-13T20:44:00;4;4;
76421;PMS5003;65254;52.354;13.614;2023-10-13T20:48:00;4;4;
76421;PMS5003;65254;52.354;13.614;2023-10-13T20:52:00;4;4;
76421;PMS5003;65254;52.354;13.614;2023-10-13T20:56:01;4;4;
76421;PMS5003;65254;52.354;13.614;2023-10-13T21:00:01;5;5;
76421;PMS5003;65254;52.354;13.614;2023-10-13T21:04:00;5;5;
76421;PMS5003;65254;52.354;13.614;2023-10-13T21:08:00;5;5;
76421;PMS5003;65254;52.354;13.614;2023-10-13T21:12:00;5;5;
76421;PMS5003;65254;52.354;13.614;2023-10-13T21:16:01;6;6;
76421;PMS5003;65254;52.354;13.614;2023-10-13T21:20:00;5;5;
76421;PMS5003;65254;52.354;13.614;2023-10-13T21:24:00;4;4;
76421;PMS5003;65254;52.354;13.614;2023-10-13T21:28:00;4;4;
76421;PMS5003;65254;52.354;13.614;2023-10-13T21:32:00;5;5;
76421;PMS5003;65254;52.354;13.614;2023-10-13T21:36:05;5;5;
76421;PMS5003;65254;52.354;13.614;2023-10-13T21:40:00;4;4;
76421;PMS5003;65254;52.354;13.614;2023-10-13T21:44:00;5;5;
76421;PMS5003;65254;52.354;13.614;2023-10-13T21:48:00;5;5;
76421;PMS5003;65254;52.354;13.614;2023-10-13T21:52:00;4;4;
76421;PMS5003;65254;52.354;13.614;2023-10-13T21:56:00;4;4;
76421;PMS5003;65254;52.354;13.614;2023-10-13T22:00:01;4;4;
76421;PMS5003;65254;52.354;13.614;2023-10-13T22:04:00;5;5;
76421;PMS5003;65254;52.354;13.614;2023-10-13T22:08:00;4;4;
76421;PMS5003;65254;52.354;13.614;2023-10-13T22:12:00;5;5;
76421;PMS5003;65254;52.354;13.614;2023-10-13T22:16:00;5;5;
76421;PMS5003;65254;52.354;13.614;2023-10-13T22:20:00;5;5;
76421;PMS5003;65254;52.354;13.614;2023-10-13T22:24:00;4;4;
76421;PMS5003;65254;52.354;13.614;2023-10-13T22:28:00;4;4;
76421;PMS5003;65254;52.354;13.614;2023-10-13T22:32:00;4;4;
76421;PMS5003;65254;52.354;13.614;2023-10-13T22:36:00;4;4;
76421;PMS5003;65254;52.354;13.614;2023-10-13T22:40:00;4;4;
76421;PMS5003;65254;52.354;13.614;2023-10-13T22:44:00;5;5;
76421;PMS5003;65254;52.354;13.614;2023-10-13T22:48:00;5;5;
76421;PMS5003;65254;52.354;13.614;2023-10-13T22:52:00;5;5;
76421;PMS5003;65254;52.354;13.614;2023-10-13T22:56:00;6;6;
76421;PMS5003;65254;52.354;13.614;2023-10-13T23:00:00;6;6;
76421;PMS5003;65254;52.354;13.614;2023-10-13T23:04:00;5;5;
76421;PMS5003;65254;52.354;13.614;2023-10-13T23:08:00;6;6;
76421;PMS5003;65254;52.354;13.614;2023-10-13T23:12:00;6;6;
76421;PMS5003;65254;52.354;13.614;2023-10-13T23:16:00;6;6;
76421;PMS5003;65254;52.354;13.614;2023-10-13T23:20:00;5;5;
76421;PMS5003;65254;52.354;13.614;2023-10-13T23:24:00;6;6;
76421;PMS5003;65254;52.354;13.614;2023-10-13T23:28:00;6;6;
76421;PMS5003;65254;52.354;13.614;2023-10-13T23:32:00;5;5;
76421;PMS5003;65254;52.354;13.614;2023-10-13T23:36:00;4;4;
76421;PMS5003;65254;52.354;13.614;2023-10-13T23:40:00;5;5;
76421;PMS5003;65254;52.354;13.614;2023-10-13T23:44:01;4;4;
76421;PMS5003;65254;52.354;13.614;2023-10-13T23:48:00;4;4;
76421;PMS5003;65254;52.354;13.614;2023-10-13T23:52:00;4;4;
76421;PMS5003;65254;52.354;13.614;2023-10-13T23:56:02;4;4;
